sensor_id;sensor_type;location;lat;lon;timestamp;temperature;humidity
20740;DHT22;10530;49.968;19.844;2023-09-08T00:00:01;12.90;99.90
20740;DHT22;10530;49.968;19.844;2023-09-08T00:05:06;13.00;99.90
20740;DHT22;10530;49.968;19.844;2023-09-08T00:10:09;13.00;99.90
20740;DHT22;10530;49.968;19.844;2023-09-08T00:15:13;13.00;99.90
20740;DHT22;10530;49.968;19.844;2023-09-08T00:20:16;13.00;99.90
20740;DHT22;10530;49.968;19.844;2023-09-08T00:25:19;13.00;99.90
20740;DHT22;10530;49.968;19.844;2023-09-08T00:30:22;12.90;99.90
20740;DHT22;10530;49.968;19.844;2023-09-08T00:35:25;12.80;99.90
20740;DHT22;10530;49.968;19.844;2023-09-08T00:40:28;12.80;99.90
20740;DHT22;10530;49.968;19.844;2023-09-08T00:45:31;12.60;99.90
20740;DHT22;10530;49.968;19.844;2023-09-08T00:50:36;12.40;99.90
20740;DHT22;10530;49.968;19.844;2023-09-08T00:55:41;12.40;99.90
20740;DHT22;10530;49.968;19.844;2023-09-08T01:00:44;12.50;99.90
20740;DHT22;10530;49.968;19.844;2023-09-08T01:05:48;12.40;99.90
20740;DHT22;10530;49.968;19.844;2023-09-08T01:10:52;12.40;99.90
20740;DHT22;10530;49.968;19.844;2023-09-08T01:15:54;12.30;99.90
20740;DHT22;10530;49.968;19.844;2023-09-08T01:26:21;12.40;99.90
20740;DHT22;10530;49.968;19.844;2023-09-08T01:31:26;12.30;99.90
20740;DHT22;10530;49.968;19.844;2023-09-08T01:36:30;12.30;99.90
20740;DHT22;10530;49.968;19.844;2023-09-08T01:41:33;12.40;99.90
20740;DHT22;10530;49.968;19.844;2023-09-08T01:46:36;12.40;99.90
20740;DHT22;10530;49.968;19.844;2023-09-08T01:51:39;12.50;99.90
20740;DHT22;10530;49.968;19.844;2023-09-08T01:56:42;12.50;99.90
20740;DHT22;10530;49.968;19.844;2023-09-08T02:01:45;12.40;99.90
20740;DHT22;10530;49.968;19.844;2023-09-08T02:06:48;12.30;99.90
20740;DHT22;10530;49.968;19.844;2023-09-08T02:11:51;12.20;99.90
20740;DHT22;10530;49.968;19.844;2023-09-08T02:16:55;12.10;99.90
20740;DHT22;10530;49.968;19.844;2023-09-08T02:21:58;12.10;99.90
20740;DHT22;10530;49.968;19.844;2023-09-08T02:27:01;12.10;99.90
20740;DHT22;10530;49.968;19.844;2023-09-08T02:32:05;12.00;99.90
20740;DHT22;10530;49.968;19.844;2023-09-08T02:37:08;11.90;99.90
20740;DHT22;10530;49.968;19.844;2023-09-08T02:42:11;11.90;99.90
20740;DHT22;10530;49.968;19.844;2023-09-08T02:47:14;11.80;99.90
20740;DHT22;10530;49.968;19.844;2023-09-08T02:52:19;11.80;99.90
20740;DHT22;10530;49.968;19.844;2023-09-08T02:57:22;11.70;99.90
20740;DHT22;10530;49.968;19.844;2023-09-08T03:02:25;11.80;99.90
20740;DHT22;10530;49.968;19.844;2023-09-08T03:07:29;11.70;99.90
20740;DHT22;10530;49.968;19.844;2023-09-08T03:12:33;11.80;99.90
20740;DHT22;10530;49.968;19.844;2023-09-08T03:17:36;11.80;99.90
20740;DHT22;10530;49.968;19.844;2023-09-08T03:22:39;11.70;99.90
20740;DHT22;10530;49.968;19.844;2023-09-08T03:27:42;11.70;99.90
20740;DHT22;10530;49.968;19.844;2023-09-08T03:32:45;11.60;99.90
20740;DHT22;10530;49.968;19.844;2023-09-08T03:37:49;11.60;99.90
20740;DHT22;10530;49.968;19.844;2023-09-08T03:42:52;11.70;99.90
20740;DHT22;10530;49.968;19.844;2023-09-08T03:47:55;11.60;99.90
20740;DHT22;10530;49.968;19.844;2023-09-08T03:52:59;11.60;99.90
20740;DHT22;10530;49.968;19.844;2023-09-08T03:58:02;11.70;99.90
20740;DHT22;10530;49.968;19.844;2023-09-08T04:03:05;11.70;99.90
20740;DHT22;10530;49.968;19.844;2023-09-08T04:08:08;11.80;99.90
20740;DHT22;10530;49.968;19.844;2023-09-08T04:13:11;11.60;99.90
20740;DHT22;10530;49.968;19.844;2023-09-08T04:18:14;11.60;99.90
20740;DHT22;10530;49.968;19.844;2023-09-08T04:23:17;11.70;99.90
20740;DHT22;10530;49.968;19.844;2023-09-08T04:28:20;11.60;99.90
20740;DHT22;10530;49.968;19.844;2023-09-08T04:33:23;11.50;99.90
20740;DHT22;10530;49.968;19.844;2023-09-08T04:38:27;11.50;99.90
20740;DHT22;10530;49.968;19.844;2023-09-08T04:43:30;11.60;99.90
20740;DHT22;10530;49.968;19.844;2023-09-08T04:48:33;11.70;99.90
20740;DHT22;10530;49.968;19.844;2023-09-08T04:53:39;11.60;99.90
20740;DHT22;10530;49.968;19.844;2023-09-08T04:58:42;11.70;99.90
20740;DHT22;10530;49.968;19.844;2023-09-08T05:03:46;11.70;99.90
20740;DHT22;10530;49.968;19.844;2023-09-08T05:08:50;11.70;99.90
20740;DHT22;10530;49.968;19.844;2023-09-08T05:13:53;11.80;99.90
20740;DHT22;10530;49.968;19.844;2023-09-08T05:18:56;11.80;99.90
20740;DHT22;10530;49.968;19.844;2023-09-08T05:23:59;12.00;99.90
20740;DHT22;10530;49.968;19.844;2023-09-08T05:29:03;12.30;99.90
20740;DHT22;10530;49.968;19.844;2023-09-08T05:34:06;12.60;99.90
20740;DHT22;10530;49.968;19.844;2023-09-08T05:39:10;12.80;99.90
20740;DHT22;10530;49.968;19.844;2023-09-08T05:44:13;13.20;99.90
20740;DHT22;10530;49.968;19.844;2023-09-08T05:49:16;13.70;99.90
20740;DHT22;10530;49.968;19.844;2023-09-08T05:54:21;14.10;99.90
20740;DHT22;10530;49.968;19.844;2023-09-08T05:59:24;14.70;99.90
20740;DHT22;10530;49.968;19.844;2023-09-08T06:04:27;15.20;99.90
20740;DHT22;10530;49.968;19.844;2023-09-08T06:09:30;15.70;99.90
20740;DHT22;10530;49.968;19.844;2023-09-08T06:14:33;16.20;99.90
20740;DHT22;10530;49.968;19.844;2023-09-08T06:19:36;16.60;99.90
20740;DHT22;10530;49.968;19.844;2023-09-08T06:24:39;17.00;99.90
20740;DHT22;10530;49.968;19.844;2023-09-08T06:29:43;17.20;99.90
20740;DHT22;10530;49.968;19.844;2023-09-08T06:34:48;17.50;99.90
20740;DHT22;10530;49.968;19.844;2023-09-08T06:39:54;17.60;99.90
20740;DHT22;10530;49.968;19.844;2023-09-08T06:44:58;17.80;99.90
20740;DHT22;10530;49.968;19.844;2023-09-08T06:50:01;17.90;99.90
20740;DHT22;10530;49.968;19.844;2023-09-08T06:55:04;18.30;99.90
20740;DHT22;10530;49.968;19.844;2023-09-08T07:00:08;18.50;99.90
20740;DHT22;10530;49.968;19.844;2023-09-08T07:05:11;18.60;99.90
20740;DHT22;10530;49.968;19.844;2023-09-08T07:10:15;18.60;99.90
20740;DHT22;10530;49.968;19.844;2023-09-08T07:15:18;18.80;99.90
20740;DHT22;10530;49.968;19.844;2023-09-08T07:20:21;18.80;99.90
20740;DHT22;10530;49.968;19.844;2023-09-08T07:25:24;19.00;99.90
20740;DHT22;10530;49.968;19.844;2023-09-08T07:30:27;19.10;99.90
20740;DHT22;10530;49.968;19.844;2023-09-08T07:35:31;19.20;99.90
20740;DHT22;10530;49.968;19.844;2023-09-08T07:40:35;19.40;99.90
20740;DHT22;10530;49.968;19.844;2023-09-08T07:45:38;19.40;99.90
20740;DHT22;10530;49.968;19.844;2023-09-08T07:50:43;19.60;99.90
20740;DHT22;10530;49.968;19.844;2023-09-08T07:55:45;19.80;99.90
20740;DHT22;10530;49.968;19.844;2023-09-08T08:00:49;20.00;99.90
20740;DHT22;10530;49.968;19.844;2023-09-08T08:05:51;20.60;99.90
20740;DHT22;10530;49.968;19.844;2023-09-08T08:10:54;20.90;99.90
20740;DHT22;10530;49.968;19.844;2023-09-08T08:15:58;21.20;99.90
20740;DHT22;10530;49.968;19.844;2023-09-08T08:21:01;22.20;99.90
20740;DHT22;10530;49.968;19.844;2023-09-08T08:26:06;23.00;99.90
20740;DHT22;10530;49.968;19.844;2023-09-08T08:31:09;23.30;99.90
20740;DHT22;10530;49.968;19.844;2023-09-08T08:36:13;24.20;99.90
20740;DHT22;10530;49.968;19.844;2023-09-08T08:41:16;24.50;99.90
20740;DHT22;10530;49.968;19.844;2023-09-08T08:46:21;24.90;99.90
20740;DHT22;10530;49.968;19.844;2023-09-08T08:51:25;24.90;99.90
20740;DHT22;10530;49.968;19.844;2023-09-08T08:56:29;25.50;99.90
20740;DHT22;10530;49.968;19.844;2023-09-08T09:01:32;26.60;99.90
20740;DHT22;10530;49.968;19.844;2023-09-08T09:06:36;27.50;99.90
20740;DHT22;10530;49.968;19.844;2023-09-08T09:11:40;28.10;99.90
20740;DHT22;10530;49.968;19.844;2023-09-08T09:16:44;28.00;99.90
20740;DHT22;10530;49.968;19.844;2023-09-08T09:21:48;28.20;99.90
20740;DHT22;10530;49.968;19.844;2023-09-08T09:26:53;28.60;97.70
20740;DHT22;10530;49.968;19.844;2023-09-08T09:32:04;28.50;95.70
20740;DHT22;10530;49.968;19.844;2023-09-08T09:37:08;28.90;95.60
20740;DHT22;10530;49.968;19.844;2023-09-08T09:42:12;29.00;90.80
20740;DHT22;10530;49.968;19.844;2023-09-08T09:47:19;28.90;82.20
20740;DHT22;10530;49.968;19.844;2023-09-08T09:52:23;28.80;84.00
20740;DHT22;10530;49.968;19.844;2023-09-08T09:57:28;30.00;74.60
20740;DHT22;10530;49.968;19.844;2023-09-08T10:02:32;30.00;65.30
20740;DHT22;10530;49.968;19.844;2023-09-08T10:07:36;30.40;58.60
20740;DHT22;10530;49.968;19.844;2023-09-08T10:12:44;30.80;52.00
20740;DHT22;10530;49.968;19.844;2023-09-08T10:17:55;31.10;46.50
20740;DHT22;10530;49.968;19.844;2023-09-08T10:23:30;31.80;33.30
20740;DHT22;10530;49.968;19.844;2023-09-08T10:28:36;31.10;34.30
20740;DHT22;10530;49.968;19.844;2023-09-08T10:33:41;31.70;31.80
20740;DHT22;10530;49.968;19.844;2023-09-08T10:38:44;32.30;29.00
20740;DHT22;10530;49.968;19.844;2023-09-08T10:43:58;31.70;26.60
20740;DHT22;10530;49.968;19.844;2023-09-08T10:49:07;31.30;28.70
20740;DHT22;10530;49.968;19.844;2023-09-08T10:54:10;31.70;28.00
20740;DHT22;10530;49.968;19.844;2023-09-08T10:59:13;31.50;27.80
20740;DHT22;10530;49.968;19.844;2023-09-08T11:04:17;32.10;26.30
20740;DHT22;10530;49.968;19.844;2023-09-08T11:09:21;31.80;29.30
20740;DHT22;10530;49.968;19.844;2023-09-08T11:14:26;31.60;25.00
20740;DHT22;10530;49.968;19.844;2023-09-08T11:19:49;32.20;25.50
20740;DHT22;10530;49.968;19.844;2023-09-08T11:24:53;32.50;25.40
20740;DHT22;10530;49.968;19.844;2023-09-08T11:29:59;31.70;25.80
20740;DHT22;10530;49.968;19.844;2023-09-08T11:35:05;32.20;22.90
20740;DHT22;10530;49.968;19.844;2023-09-08T11:40:10;31.50;26.70
20740;DHT22;10530;49.968;19.844;2023-09-08T11:45:17;31.70;21.90
20740;DHT22;10530;49.968;19.844;2023-09-08T11:50:26;30.40;30.10
20740;DHT22;10530;49.968;19.844;2023-09-08T11:55:29;32.00;29.50
20740;DHT22;10530;49.968;19.844;2023-09-08T12:00:33;33.30;20.90
20740;DHT22;10530;49.968;19.844;2023-09-08T12:05:37;33.10;17.30
20740;DHT22;10530;49.968;19.844;2023-09-08T12:10:42;32.90;18.30
20740;DHT22;10530;49.968;19.844;2023-09-08T12:15:45;32.10;12.20
20740;DHT22;10530;49.968;19.844;2023-09-08T12:21:03;32.70;13.00
20740;DHT22;10530;49.968;19.844;2023-09-08T12:26:07;33.10;12.60
20740;DHT22;10530;49.968;19.844;2023-09-08T12:31:11;33.00;10.30
20740;DHT22;10530;49.968;19.844;2023-09-08T12:36:17;33.00;12.20
20740;DHT22;10530;49.968;19.844;2023-09-08T12:41:20;32.90;9.90
20740;DHT22;10530;49.968;19.844;2023-09-08T12:46:24;33.00;9.20
20740;DHT22;10530;49.968;19.844;2023-09-08T12:51:28;31.80;8.70
20740;DHT22;10530;49.968;19.844;2023-09-08T12:56:30;32.70;10.70
20740;DHT22;10530;49.968;19.844;2023-09-08T13:01:33;33.20;11.10
20740;DHT22;10530;49.968;19.844;2023-09-08T13:06:36;33.00;6.60
20740;DHT22;10530;49.968;19.844;2023-09-08T13:11:39;32.80;5.80
20740;DHT22;10530;49.968;19.844;2023-09-08T13:16:42;31.50;6.40
20740;DHT22;10530;49.968;19.844;2023-09-08T13:21:45;32.40;7.50
20740;DHT22;10530;49.968;19.844;2023-09-08T13:26:48;32.10;8.20
20740;DHT22;10530;49.968;19.844;2023-09-08T13:31:51;31.60;6.20
20740;DHT22;10530;49.968;19.844;2023-09-08T13:36:54;31.80;9.10
20740;DHT22;10530;49.968;19.844;2023-09-08T13:42:00;32.70;8.00
20740;DHT22;10530;49.968;19.844;2023-09-08T13:47:03;32.60;6.10
20740;DHT22;10530;49.968;19.844;2023-09-08T13:52:07;31.80;5.00
20740;DHT22;10530;49.968;19.844;2023-09-08T13:57:13;32.30;5.50
20740;DHT22;10530;49.968;19.844;2023-09-08T14:02:16;32.40;5.30
20740;DHT22;10530;49.968;19.844;2023-09-08T14:07:22;31.30;5.50
20740;DHT22;10530;49.968;19.844;2023-09-08T14:12:36;31.80;8.90
20740;DHT22;10530;49.968;19.844;2023-09-08T14:17:40;31.60;5.00
20740;DHT22;10530;49.968;19.844;2023-09-08T14:22:43;31.60;5.80
20740;DHT22;10530;49.968;19.844;2023-09-08T14:27:45;31.00;2.80
20740;DHT22;10530;49.968;19.844;2023-09-08T14:32:49;31.00;8.00
20740;DHT22;10530;49.968;19.844;2023-09-08T14:37:52;31.10;7.00
20740;DHT22;10530;49.968;19.844;2023-09-08T14:42:54;30.80;10.50
20740;DHT22;10530;49.968;19.844;2023-09-08T14:47:57;30.60;9.20
20740;DHT22;10530;49.968;19.844;2023-09-08T14:53:03;30.40;9.60
20740;DHT22;10530;49.968;19.844;2023-09-08T14:58:06;30.40;15.10
20740;DHT22;10530;49.968;19.844;2023-09-08T15:03:09;30.30;17.20
20740;DHT22;10530;49.968;19.844;2023-09-08T15:08:12;30.10;14.40
20740;DHT22;10530;49.968;19.844;2023-09-08T15:13:15;29.80;20.20
20740;DHT22;10530;49.968;19.844;2023-09-08T15:18:18;29.70;18.90
20740;DHT22;10530;49.968;19.844;2023-09-08T15:23:25;29.30;19.70
20740;DHT22;10530;49.968;19.844;2023-09-08T15:28:28;28.60;25.50
20740;DHT22;10530;49.968;19.844;2023-09-08T15:33:31;28.60;24.90
20740;DHT22;10530;49.968;19.844;2023-09-08T15:38:34;28.50;23.00
20740;DHT22;10530;49.968;19.844;2023-09-08T15:43:39;28.40;23.20
20740;DHT22;10530;49.968;19.844;2023-09-08T15:48:42;28.10;30.90
20740;DHT22;10530;49.968;19.844;2023-09-08T15:53:45;27.70;29.20
20740;DHT22;10530;49.968;19.844;2023-09-08T15:58:48;27.40;40.30
20740;DHT22;10530;49.968;19.844;2023-09-08T16:03:51;26.80;37.30
20740;DHT22;10530;49.968;19.844;2023-09-08T16:08:55;26.60;39.00
20740;DHT22;10530;49.968;19.844;2023-09-08T16:13:58;26.30;45.40
20740;DHT22;10530;49.968;19.844;2023-09-08T16:19:01;25.80;56.70
20740;DHT22;10530;49.968;19.844;2023-09-08T16:24:04;25.20;99.90
20740;DHT22;10530;49.968;19.844;2023-09-08T16:29:07;24.90;99.90
20740;DHT22;10530;49.968;19.844;2023-09-08T16:34:10;24.40;99.90
20740;DHT22;10530;49.968;19.844;2023-09-08T16:39:13;23.80;99.90
20740;DHT22;10530;49.968;19.844;2023-09-08T16:44:16;23.40;99.90
20740;DHT22;10530;49.968;19.844;2023-09-08T16:49:19;22.90;99.90
20740;DHT22;10530;49.968;19.844;2023-09-08T16:54:22;22.40;99.90
20740;DHT22;10530;49.968;19.844;2023-09-08T16:59:24;22.00;99.90
20740;DHT22;10530;49.968;19.844;2023-09-08T17:04:27;21.60;99.90
20740;DHT22;10530;49.968;19.844;2023-09-08T17:09:30;21.40;99.90
20740;DHT22;10530;49.968;19.844;2023-09-08T17:14:34;21.10;99.90
20740;DHT22;10530;49.968;19.844;2023-09-08T17:19:37;20.90;99.90
20740;DHT22;10530;49.968;19.844;2023-09-08T17:24:40;20.70;99.90
20740;DHT22;10530;49.968;19.844;2023-09-08T17:29:43;20.50;99.90
20740;DHT22;10530;49.968;19.844;2023-09-08T17:34:46;20.40;99.90
20740;DHT22;10530;49.968;19.844;2023-09-08T17:39:51;20.20;99.90
20740;DHT22;10530;49.968;19.844;2023-09-08T17:44:54;20.00;99.90
20740;DHT22;10530;49.968;19.844;2023-09-08T17:49:57;19.80;99.90
20740;DHT22;10530;49.968;19.844;2023-09-08T17:55:00;19.50;99.90
20740;DHT22;10530;49.968;19.844;2023-09-08T18:00:07;19.50;99.90
20740;DHT22;10530;49.968;19.844;2023-09-08T18:05:11;19.40;99.90
20740;DHT22;10530;49.968;19.844;2023-09-08T18:10:14;19.10;99.90
20740;DHT22;10530;49.968;19.844;2023-09-08T18:15:18;19.00;99.90
20740;DHT22;10530;49.968;19.844;2023-09-08T18:20:21;18.90;99.90
20740;DHT22;10530;49.968;19.844;2023-09-08T18:25:24;18.90;99.90
20740;DHT22;10530;49.968;19.844;2023-09-08T18:30:27;18.80;99.90
20740;DHT22;10530;49.968;19.844;2023-09-08T18:35:30;18.60;99.90
20740;DHT22;10530;49.968;19.844;2023-09-08T18:40:35;18.60;99.90
20740;DHT22;10530;49.968;19.844;2023-09-08T18:45:38;18.60;99.90
20740;DHT22;10530;49.968;19.844;2023-09-08T18:50:41;18.50;99.90
20740;DHT22;10530;49.968;19.844;2023-09-08T18:55:45;18.40;99.90
20740;DHT22;10530;49.968;19.844;2023-09-08T19:00:48;18.30;99.90
20740;DHT22;10530;49.968;19.844;2023-09-08T19:05:51;18.10;99.90
20740;DHT22;10530;49.968;19.844;2023-09-08T19:10:54;18.10;99.90
20740;DHT22;10530;49.968;19.844;2023-09-08T19:15:57;17.80;99.90
20740;DHT22;10530;49.968;19.844;2023-09-08T19:21:00;17.80;99.90
20740;DHT22;10530;49.968;19.844;2023-09-08T19:26:06;17.50;99.90
20740;DHT22;10530;49.968;19.844;2023-09-08T19:31:09;17.30;99.90
20740;DHT22;10530;49.968;19.844;2023-09-08T19:36:13;17.10;99.90
20740;DHT22;10530;49.968;19.844;2023-09-08T19:41:16;16.90;99.90
20740;DHT22;10530;49.968;19.844;2023-09-08T19:46:19;16.80;99.90
20740;DHT22;10530;49.968;19.844;2023-09-08T19:51:22;16.60;99.90
20740;DHT22;10530;49.968;19.844;2023-09-08T19:56:25;16.50;99.90
20740;DHT22;10530;49.968;19.844;2023-09-08T20:01:28;16.40;99.90
20740;DHT22;10530;49.968;19.844;2023-09-08T20:06:31;16.30;99.90
20740;DHT22;10530;49.968;19.844;2023-09-08T20:11:34;16.30;99.90
20740;DHT22;10530;49.968;19.844;2023-09-08T20:16:37;16.20;99.90
20740;DHT22;10530;49.968;19.844;2023-09-08T20:21:43;16.10;99.90
20740;DHT22;10530;49.968;19.844;2023-09-08T20:26:47;16.00;99.90
20740;DHT22;10530;49.968;19.844;2023-09-08T20:31:50;15.90;99.90
20740;DHT22;10530;49.968;19.844;2023-09-08T20:36:53;15.90;99.90
20740;DHT22;10530;49.968;19.844;2023-09-08T20:41:57;15.80;99.90
20740;DHT22;10530;49.968;19.844;2023-09-08T20:47:00;15.70;99.90
20740;DHT22;10530;49.968;19.844;2023-09-08T20:52:04;15.70;99.90
20740;DHT22;10530;49.968;19.844;2023-09-08T20:57:07;15.60;99.90
20740;DHT22;10530;49.968;19.844;2023-09-08T21:02:10;15.50;99.90
20740;DHT22;10530;49.968;19.844;2023-09-08T21:07:13;15.60;99.90
20740;DHT22;10530;49.968;19.844;2023-09-08T21:12:16;15.50;99.90
20740;DHT22;10530;49.968;19.844;2023-09-08T21:17:19;15.50;99.90
20740;DHT22;10530;49.968;19.844;2023-09-08T21:22:22;15.40;99.90
20740;DHT22;10530;49.968;19.844;2023-09-08T21:27:26;15.40;99.90
20740;DHT22;10530;49.968;19.844;2023-09-08T21:32:28;15.30;99.90
20740;DHT22;10530;49.968;19.844;2023-09-08T21:37:31;15.30;99.90
20740;DHT22;10530;49.968;19.844;2023-09-08T21:42:34;15.30;99.90
20740;DHT22;10530;49.968;19.844;2023-09-08T21:47:38;15.20;99.90
20740;DHT22;10530;49.968;19.844;2023-09-08T21:52:41;15.10;99.90
20740;DHT22;10530;49.968;19.844;2023-09-08T21:57:44;15.10;99.90
20740;DHT22;10530;49.968;19.844;2023-09-08T22:02:47;15.10;99.90
20740;DHT22;10530;49.968;19.844;2023-09-08T22:07:51;15.00;99.90
20740;DHT22;10530;49.968;19.844;2023-09-08T22:12:53;15.00;99.90
20740;DHT22;10530;49.968;19.844;2023-09-08T22:17:57;15.00;99.90
20740;DHT22;10530;49.968;19.844;2023-09-08T22:23:00;14.90;99.90
20740;DHT22;10530;49.968;19.844;2023-09-08T22:28:03;14.80;99.90
20740;DHT22;10530;49.968;19.844;2023-09-08T22:33:06;14.80;99.90
20740;DHT22;10530;49.968;19.844;2023-09-08T22:38:10;14.70;99.90
20740;DHT22;10530;49.968;19.844;2023-09-08T22:43:13;14.60;99.90
20740;DHT22;10530;49.968;19.844;2023-09-08T22:48:16;14.60;99.90
20740;DHT22;10530;49.968;19.844;2023-09-08T22:53:20;14.50;99.90
20740;DHT22;10530;49.968;19.844;2023-09-08T22:58:23;14.50;99.90
20740;DHT22;10530;49.968;19.844;2023-09-08T23:03:27;14.50;99.90
20740;DHT22;10530;49.968;19.844;2023-09-08T23:08:30;14.30;99.90
20740;DHT22;10530;49.968;19.844;2023-09-08T23:13:33;14.40;99.90
20740;DHT22;10530;49.968;19.844;2023-09-08T23:18:37;14.50;99.90
20740;DHT22;10530;49.968;19.844;2023-09-08T23:23:40;14.40;99.90
20740;DHT22;10530;49.968;19.844;2023-09-08T23:28:43;14.40;99.90
20740;DHT22;10530;49.968;19.844;2023-09-08T23:33:46;14.30;99.90
20740;DHT22;10530;49.968;19.844;2023-09-08T23:38:49;14.30;99.90
20740;DHT22;10530;49.968;19.844;2023-09-08T23:43:53;14.20;99.90
20740;DHT22;10530;49.968;19.844;2023-09-08T23:48:56;14.30;99.90
20740;DHT22;10530;49.968;19.844;2023-09-08T23:53:59;14.10;99.90
20740;DHT22;10530;49.968;19.844;2023-09-08T23:59:02;14.00;99.90
